METAR Formatted Surface Weather Observation
Issued by NWS

Home | Current Version | Previous Version | Text Only | Print | Product List | Glossary On
Versions: 1 2 3 4 5 6 7 8
000
SAUS46 KLOX 211655
MTRNZY
METAR KNZY 211652Z 26009KT 10SM BKN025 22/16 A3000 RMK AO2 SLP157
T02220156



USA.gov is the U.S. government's official web portal to all federal, state and local government web resources and services.